createdAt,value
2023-01-08T00:01:13.133Z,91.83
2023-01-08T00:06:08.795Z,91.78
2023-01-08T00:11:01.808Z,91.83
2023-01-08T00:15:54.726Z,91.93
2023-01-08T00:20:47.841Z,91.94
2023-01-08T00:25:40.642Z,91.95
2023-01-08T00:30:33.841Z,91.89
2023-01-08T00:35:26.749Z,91.84
2023-01-08T00:40:19.600Z,91.79
2023-01-08T00:45:12.723Z,91.96
2023-01-08T00:50:06.649Z,91.72
2023-01-08T00:54:59.811Z,91.79
2023-01-08T00:59:52.707Z,91.74
2023-01-08T01:04:45.614Z,91.82
2023-01-08T01:09:38.857Z,91.75
2023-01-08T01:14:32.058Z,91.85
2023-01-08T01:19:25.259Z,91.76
2023-01-08T01:24:18.250Z,91.69
2023-01-08T01:29:11.083Z,91.67
2023-01-08T01:34:04.107Z,91.75
2023-01-08T01:38:59.147Z,91.63
2023-01-08T01:43:52.663Z,91.53
2023-01-08T01:48:46.691Z,91.72
2023-01-08T01:53:41.703Z,91.63
2023-01-08T01:58:34.619Z,91.14
2023-01-08T02:03:34.159Z,91.28
2023-01-08T02:09:03.248Z,91.19
2023-01-08T02:14:19.405Z,91.26
2023-01-08T02:19:42.187Z,91.53
2023-01-08T02:25:04.084Z,90.88
2023-01-08T02:29:58.308Z,91.10
2023-01-08T02:34:51.384Z,91.00
2023-01-08T02:40:00.163Z,91.13
2023-01-08T02:45:09.264Z,90.98
2023-01-08T02:50:40.859Z,91.04
2023-01-08T02:55:36.903Z,91.06
2023-01-08T03:00:30.932Z,90.87
2023-01-08T03:05:28.662Z,91.14
2023-01-08T03:10:26.780Z,91.23
2023-01-08T03:15:35.425Z,90.92
2023-01-08T03:20:28.615Z,91.34
2023-01-08T03:25:25.403Z,91.10
2023-01-08T03:30:20.402Z,90.94
2023-01-08T03:35:18.193Z,91.21
2023-01-08T03:40:25.042Z,91.58
2023-01-08T03:45:18.521Z,91.44
2023-01-08T03:50:17.496Z,91.11
2023-01-08T03:55:11.024Z,91.39
2023-01-08T04:00:04.302Z,90.98
2023-01-08T04:04:57.942Z,90.69
2023-01-08T04:09:50.775Z,91.20
2023-01-08T04:14:43.570Z,91.18
2023-01-08T04:19:36.913Z,90.94
2023-01-08T04:24:29.789Z,90.59
2023-01-08T04:29:22.572Z,90.49
2023-01-08T04:34:15.471Z,90.56
2023-01-08T04:39:09.331Z,90.27
2023-01-08T04:44:02.103Z,90.02
2023-01-08T04:48:54.948Z,90.35
2023-01-08T04:53:47.752Z,90.47
2023-01-08T04:58:41.579Z,90.32
2023-01-08T05:03:34.945Z,90.16
2023-01-08T05:08:27.771Z,90.37
2023-01-08T05:13:20.562Z,90.32
2023-01-08T05:18:13.539Z,89.78
2023-01-08T05:23:06.318Z,89.92
2023-01-08T05:27:59.113Z,89.86
2023-01-08T05:32:51.929Z,89.76
2023-01-08T05:37:44.725Z,89.92
2023-01-08T05:42:38.081Z,89.89
2023-01-08T05:47:32.294Z,89.99
2023-01-08T05:52:25.133Z,89.58
2023-01-08T05:57:18.042Z,89.84
2023-01-08T06:02:10.946Z,89.92
2023-01-08T06:07:03.787Z,89.55
2023-01-08T06:11:58.123Z,89.62
2023-01-08T06:16:51.159Z,89.45
2023-01-08T06:21:43.964Z,89.36
2023-01-08T06:26:36.807Z,89.12
2023-01-08T06:31:30.062Z,88.84
2023-01-08T06:36:22.957Z,88.71
2023-01-08T06:41:15.858Z,88.97
2023-01-08T06:46:09.929Z,88.59
2023-01-08T06:51:04.042Z,88.36
2023-01-08T06:55:58.860Z,88.59
2023-01-08T07:00:51.949Z,88.14
2023-01-08T07:05:44.983Z,88.54
2023-01-08T07:10:37.818Z,88.23
2023-01-08T07:15:30.618Z,88.37
2023-01-08T07:20:23.433Z,88.17
2023-01-08T07:25:16.324Z,88.05
2023-01-08T07:30:21.031Z,88.14
2023-01-08T07:35:21.410Z,88.05
2023-01-08T07:40:15.217Z,87.58
2023-01-08T07:45:08.846Z,87.80
2023-01-08T07:50:01.778Z,87.72
2023-01-08T07:54:54.736Z,87.37
2023-01-08T07:59:47.592Z,87.33
2023-01-08T08:04:40.489Z,87.50
2023-01-08T08:09:33.846Z,87.52
2023-01-08T08:14:26.661Z,87.75
2023-01-08T08:19:19.524Z,87.43
2023-01-08T08:24:13.338Z,87.28
2023-01-08T08:29:06.336Z,86.97
2023-01-08T08:33:59.236Z,87.02
2023-01-08T08:38:52.083Z,86.62
2023-01-08T08:43:44.992Z,86.88
2023-01-08T08:48:38.153Z,86.37
2023-01-08T08:53:30.993Z,86.49
2023-01-08T08:58:24.013Z,85.83
2023-01-08T09:03:17.923Z,86.01
2023-01-08T09:08:11.569Z,86.06
2023-01-08T09:13:04.529Z,85.83
2023-01-08T09:17:58.848Z,85.91
2023-01-08T09:22:51.774Z,85.60
2023-01-08T09:27:44.784Z,85.64
2023-01-08T09:32:38.287Z,85.05
2023-01-08T09:37:31.162Z,85.27
2023-01-08T09:42:27.126Z,85.34
2023-01-08T09:47:30.981Z,85.15
2023-01-08T09:52:23.952Z,84.99
2023-01-08T09:57:22.593Z,84.64
2023-01-08T10:02:26.381Z,84.79
2023-01-08T10:07:23.095Z,84.01
2023-01-08T10:12:17.510Z,83.89
2023-01-08T10:17:49.709Z,83.94
2023-01-08T10:22:43.271Z,83.78
2023-01-08T10:27:47.465Z,83.70
2023-01-08T10:32:40.681Z,82.98
2023-01-08T10:37:43.539Z,83.09
2023-01-08T10:42:37.788Z,83.16
2023-01-08T10:47:37.142Z,82.72
2023-01-08T10:52:36.637Z,82.25
2023-01-08T10:57:32.840Z,82.57
2023-01-08T11:02:39.473Z,82.82
2023-01-08T11:07:35.455Z,82.77
2023-01-08T11:12:36.584Z,82.12
2023-01-08T11:17:29.869Z,82.14
2023-01-08T11:22:25.158Z,81.66
2023-01-08T11:27:42.014Z,81.94
2023-01-08T11:33:07.532Z,81.90
2023-01-08T11:38:02.452Z,81.87
2023-01-08T11:43:26.390Z,81.61
2023-01-08T11:48:51.400Z,81.44
2023-01-08T11:54:19.773Z,81.75
2023-01-08T11:59:19.137Z,81.63
2023-01-08T12:04:33.862Z,81.85
2023-01-08T12:09:42.075Z,81.60
2023-01-08T12:14:50.092Z,81.53
2023-01-08T12:20:14.227Z,80.95
2023-01-08T12:25:33.131Z,81.16
2023-01-08T12:30:44.846Z,81.68
2023-01-08T12:35:47.038Z,81.84
2023-01-08T12:41:11.175Z,82.04
2023-01-08T12:46:06.901Z,81.65
2023-01-08T12:51:18.363Z,81.76
2023-01-08T12:56:38.003Z,81.64
2023-01-08T13:01:56.788Z,82.06
2023-01-08T13:07:04.996Z,81.95
2023-01-08T13:12:00.583Z,81.64
2023-01-08T13:17:09.236Z,81.70
2023-01-08T13:22:02.563Z,82.13
2023-01-08T13:26:56.264Z,81.99
2023-01-08T13:31:49.212Z,82.07
2023-01-08T13:36:42.048Z,82.54
2023-01-08T13:41:40.213Z,82.48
2023-01-08T13:46:41.101Z,82.37
2023-01-08T13:51:39.816Z,82.33
2023-01-08T13:56:33.525Z,82.54
2023-01-08T14:01:26.876Z,82.66
2023-01-08T14:06:21.222Z,82.47
2023-01-08T14:11:14.075Z,82.92
2023-01-08T14:16:08.026Z,83.01
2023-01-08T14:21:01.130Z,82.92
2023-01-08T14:25:55.267Z,82.94
2023-01-08T14:30:55.776Z,83.03
2023-01-08T14:35:51.556Z,83.24
2023-01-08T14:40:51.315Z,83.17
2023-01-08T14:45:53.599Z,83.32
2023-01-08T14:51:01.154Z,83.22
2023-01-08T14:55:56.863Z,83.20
2023-01-08T15:00:56.286Z,83.19
2023-01-08T15:05:54.483Z,83.33
2023-01-08T15:10:47.438Z,83.35
2023-01-08T15:15:59.795Z,83.36
2023-01-08T15:20:53.451Z,83.24
2023-01-08T15:25:46.599Z,83.57
2023-01-08T15:30:45.338Z,83.47
2023-01-08T15:35:38.346Z,83.12
2023-01-08T15:40:31.131Z,83.38
2023-01-08T15:45:32.016Z,83.57
2023-01-08T15:50:26.991Z,83.40
2023-01-08T15:55:23.077Z,83.22
2023-01-08T16:00:17.855Z,83.16
2023-01-08T16:05:11.582Z,83.34
2023-01-08T16:10:04.809Z,83.48
2023-01-08T16:14:58.235Z,83.36
2023-01-08T16:19:51.118Z,83.42
2023-01-08T16:24:44.049Z,83.30
2023-01-08T16:29:36.955Z,83.43
2023-01-08T16:34:29.903Z,83.33
2023-01-08T16:39:23.273Z,83.49
2023-01-08T16:44:22.602Z,83.59
2023-01-08T16:49:15.609Z,83.55
2023-01-08T16:54:09.414Z,83.79
2023-01-08T16:59:05.328Z,83.70
2023-01-08T17:04:02.666Z,83.52
2023-01-08T17:08:56.220Z,83.72
2023-01-08T17:13:50.877Z,83.67
2023-01-08T17:18:43.801Z,83.89
2023-01-08T17:23:37.419Z,83.88
2023-01-08T17:28:30.800Z,83.87
2023-01-08T17:33:23.656Z,83.96
2023-01-08T17:38:16.517Z,84.07
2023-01-08T17:43:10.634Z,84.16
2023-01-08T17:48:03.460Z,84.04
2023-01-08T17:52:58.939Z,84.04
2023-01-08T17:57:51.807Z,84.17
2023-01-08T18:02:44.656Z,84.18
2023-01-08T18:07:38.072Z,84.27
2023-01-08T18:12:32.571Z,84.46
2023-01-08T18:17:25.475Z,84.35
2023-01-08T18:22:18.467Z,84.37
2023-01-08T18:27:11.270Z,84.45
2023-01-08T18:32:04.260Z,84.74
2023-01-08T18:36:57.118Z,84.57
2023-01-08T18:42:07.610Z,84.32
2023-01-08T18:47:00.440Z,84.89
2023-01-08T18:51:53.251Z,84.93
2023-01-08T18:56:46.597Z,84.84
2023-01-08T19:01:39.612Z,84.81
2023-01-08T19:06:32.622Z,84.92
2023-01-08T19:11:25.914Z,85.17
2023-01-08T19:16:20.950Z,85.01
2023-01-08T19:21:17.745Z,85.15
2023-01-08T19:26:10.951Z,85.26
2023-01-08T19:31:04.449Z,85.31
2023-01-08T19:36:02.219Z,84.75
2023-01-08T19:41:00.291Z,84.96
2023-01-08T19:45:53.213Z,85.50
2023-01-08T19:50:46.996Z,85.31
2023-01-08T19:55:39.863Z,85.20
2023-01-08T20:00:37.419Z,85.32
2023-01-08T20:05:31.054Z,85.45
2023-01-08T20:10:24.162Z,85.54
2023-01-08T20:15:18.333Z,85.41
2023-01-08T20:20:12.793Z,85.28
2023-01-08T20:25:07.163Z,85.33
2023-01-08T20:30:01.439Z,85.54
2023-01-08T20:34:54.352Z,85.66
2023-01-08T20:39:47.599Z,85.79
2023-01-08T20:44:40.446Z,85.66
2023-01-08T20:49:33.288Z,85.68
2023-01-08T20:54:26.219Z,85.83
2023-01-08T20:59:19.182Z,85.80
2023-01-08T21:04:13.587Z,85.84
2023-01-08T21:09:09.913Z,85.89
2023-01-08T21:14:03.167Z,85.90
2023-01-08T21:18:56.240Z,86.35
2023-01-08T21:23:53.232Z,86.22
2023-01-08T21:28:46.767Z,86.07
2023-01-08T21:33:39.859Z,86.14
2023-01-08T21:38:33.485Z,86.30
2023-01-08T21:43:43.781Z,86.30
2023-01-08T21:48:36.684Z,86.49
2023-01-08T21:53:36.487Z,86.49
2023-01-08T21:58:31.195Z,86.47
2023-01-08T22:03:24.908Z,86.34
2023-01-08T22:08:18.611Z,86.54
2023-01-08T22:13:14.068Z,86.48
2023-01-08T22:18:06.879Z,86.38
2023-01-08T22:22:59.708Z,86.48
2023-01-08T22:27:54.675Z,86.58
2023-01-08T22:32:47.728Z,86.68
2023-01-08T22:37:43.609Z,86.82
2023-01-08T22:42:36.483Z,86.66
2023-01-08T22:47:29.292Z,86.75
2023-01-08T22:52:24.805Z,86.81
2023-01-08T22:57:18.199Z,86.70
2023-01-08T23:02:11.154Z,86.88
2023-01-08T23:07:04.329Z,86.71
2023-01-08T23:11:57.159Z,86.96
2023-01-08T23:16:50.692Z,86.93
2023-01-08T23:21:43.953Z,86.79
2023-01-08T23:26:36.874Z,86.96
2023-01-08T23:31:32.607Z,87.26
2023-01-08T23:36:26.658Z,87.11
2023-01-08T23:41:21.817Z,86.96
2023-01-08T23:46:14.705Z,87.15
2023-01-08T23:51:08.058Z,86.95
2023-01-08T23:56:01.075Z,87.21
